createdAt,value
2022-09-14T00:00:23.375Z,0.00
2022-09-14T00:01:27.257Z,0.00
2022-09-14T00:02:31.164Z,0.00
2022-09-14T00:03:34.598Z,0.50
2022-09-14T00:04:37.978Z,0.50
2022-09-14T00:05:41.463Z,0.00
2022-09-14T00:06:44.953Z,1.00
2022-09-14T00:07:49.166Z,0.50
2022-09-14T00:08:52.445Z,0.25
2022-09-14T00:09:55.938Z,1.00
2022-09-14T00:10:59.629Z,0.75
2022-09-14T00:12:05.583Z,1.00
2022-09-14T00:13:09.081Z,1.00
2022-09-14T00:14:13.963Z,1.00
2022-09-14T00:15:16.862Z,0.25
2022-09-14T00:16:20.284Z,0.00
2022-09-14T00:17:23.638Z,0.50
2022-09-14T00:18:26.926Z,0.50
2022-09-14T00:19:30.305Z,0.50
2022-09-14T00:20:39.281Z,1.00
2022-09-14T00:21:43.221Z,0.50
2022-09-14T00:22:46.917Z,0.00
2022-09-14T00:23:50.716Z,0.00
2022-09-14T00:24:54.303Z,0.50
2022-09-14T00:25:58.202Z,0.50
2022-09-14T00:27:01.910Z,2.00
2022-09-14T00:28:05.078Z,0.75
2022-09-14T00:29:08.564Z,0.00
2022-09-14T00:31:32.500Z,0.50
2022-09-14T00:32:36.645Z,1.00
2022-09-14T00:33:39.933Z,1.00
2022-09-14T00:34:43.319Z,0.00
2022-09-14T00:35:46.910Z,0.50
2022-09-14T00:36:50.402Z,1.50
2022-09-14T00:37:54.090Z,1.50
2022-09-14T00:38:57.270Z,1.25
2022-09-14T00:40:00.565Z,1.00
2022-09-14T00:41:04.048Z,1.00
2022-09-14T00:42:07.429Z,1.00
2022-09-14T00:43:10.930Z,0.50
2022-09-14T00:44:14.205Z,0.50
2022-09-14T00:45:17.696Z,0.00
2022-09-14T00:46:21.390Z,0.00
2022-09-14T00:47:24.881Z,0.00
2022-09-14T00:48:28.879Z,0.25
2022-09-14T00:49:32.161Z,0.00
2022-09-14T00:50:35.304Z,0.00
2022-09-14T00:51:38.528Z,0.00
2022-09-14T00:52:41.814Z,0.00
2022-09-14T00:53:45.703Z,0.00
2022-09-14T00:54:49.198Z,0.00
2022-09-14T00:55:52.687Z,0.50
2022-09-14T00:56:56.279Z,0.00
2022-09-14T00:57:59.427Z,0.50
2022-09-14T00:59:07.354Z,0.50
2022-09-14T01:00:10.876Z,0.25
2022-09-14T01:01:14.518Z,0.00
2022-09-14T01:02:18.872Z,0.00
2022-09-14T01:03:22.641Z,0.50
2022-09-14T01:04:26.540Z,0.00
2022-09-14T01:05:30.442Z,0.00
2022-09-14T01:06:34.541Z,0.00
2022-09-14T01:07:37.927Z,0.00
2022-09-14T01:08:41.209Z,0.00
2022-09-14T01:09:44.801Z,0.50
2022-09-14T01:10:48.600Z,0.50
2022-09-14T01:11:52.192Z,0.00
2022-09-14T01:12:55.783Z,0.00
2022-09-14T01:13:59.221Z,0.00
2022-09-14T01:15:02.858Z,0.50
2022-09-14T01:16:06.487Z,0.50
2022-09-14T01:17:09.940Z,0.00
2022-09-14T01:18:13.531Z,0.00
2022-09-14T01:19:17.128Z,0.00
2022-09-14T01:20:20.613Z,0.00
2022-09-14T01:21:23.899Z,0.00
2022-09-14T01:22:27.593Z,0.00
2022-09-14T01:23:31.092Z,0.00
2022-09-14T01:24:34.472Z,0.00
2022-09-14T01:25:37.753Z,0.00
2022-09-14T01:26:41.134Z,0.00
2022-09-14T01:27:44.934Z,0.00
2022-09-14T01:28:48.625Z,0.00
2022-09-14T01:29:52.134Z,1.00
2022-09-14T01:30:56.123Z,0.50
2022-09-14T01:31:59.705Z,0.00
2022-09-14T01:33:03.199Z,0.00
2022-09-14T01:34:07.401Z,0.50
2022-09-14T01:35:15.220Z,0.50
2022-09-14T01:36:16.239Z,1.00
2022-09-14T01:37:20.228Z,0.00
2022-09-14T01:38:24.537Z,0.50
2022-09-14T01:39:28.273Z,0.50
2022-09-14T01:40:31.862Z,0.25
2022-09-14T01:41:35.837Z,1.00
2022-09-14T01:42:40.236Z,0.00
2022-09-14T01:43:43.822Z,0.50
2022-09-14T01:44:47.517Z,0.00
2022-09-14T01:45:51.170Z,0.00
2022-09-14T01:46:55.236Z,0.00
2022-09-14T01:47:58.697Z,0.75
2022-09-14T01:49:02.298Z,0.00
2022-09-14T01:50:05.679Z,0.00
2022-09-14T01:51:09.111Z,0.00
2022-09-14T01:52:12.565Z,0.00
2022-09-14T01:53:16.146Z,0.00
2022-09-14T01:54:19.810Z,0.00
2022-09-14T01:55:22.816Z,0.00
2022-09-14T01:56:27.229Z,0.50
2022-09-14T01:57:30.932Z,0.25
2022-09-14T01:58:34.100Z,0.00
2022-09-14T01:59:37.287Z,0.00
2022-09-14T02:00:40.810Z,0.00
2022-09-14T02:01:46.419Z,0.00
2022-09-14T02:02:48.886Z,0.00
2022-09-14T02:03:52.797Z,0.00
2022-09-14T02:04:56.570Z,0.50
2022-09-14T02:06:00.173Z,0.50
2022-09-14T02:07:03.662Z,0.00
2022-09-14T02:08:07.452Z,0.00
2022-09-14T02:09:11.142Z,0.00
2022-09-14T02:10:14.748Z,0.00
2022-09-14T02:11:18.428Z,0.00
2022-09-14T02:12:22.128Z,0.50
2022-09-14T02:13:25.511Z,0.25
2022-09-14T02:14:28.896Z,0.50
2022-09-14T02:15:32.076Z,0.00
2022-09-14T02:16:35.622Z,0.50
2022-09-14T02:17:39.366Z,0.50
2022-09-14T02:18:44.089Z,0.50
2022-09-14T02:19:47.669Z,1.00
2022-09-14T02:20:51.262Z,1.00
2022-09-14T02:21:55.060Z,0.75
2022-09-14T02:22:58.665Z,0.50
2022-09-14T02:24:02.139Z,0.50
2022-09-14T02:25:05.628Z,0.50
2022-09-14T02:26:09.012Z,0.00
2022-09-14T02:27:12.609Z,0.00
2022-09-14T02:28:15.663Z,0.00
2022-09-14T02:29:19.072Z,0.00
2022-09-14T02:30:22.871Z,0.25
2022-09-14T02:31:26.027Z,0.00
2022-09-14T02:32:29.097Z,0.00
2022-09-14T02:33:32.210Z,0.00
2022-09-14T02:34:37.646Z,0.00
2022-09-14T02:35:41.033Z,0.00
2022-09-14T02:36:44.549Z,0.00
2022-09-14T02:37:47.808Z,0.00
2022-09-14T02:38:51.913Z,0.50
2022-09-14T02:39:54.981Z,0.50
2022-09-14T02:40:58.373Z,0.00
2022-09-14T02:42:01.660Z,0.00
2022-09-14T02:43:05.053Z,0.00
2022-09-14T02:44:08.640Z,0.50
2022-09-14T02:45:11.923Z,0.50
2022-09-14T02:46:15.505Z,0.00
2022-09-14T02:47:19.307Z,0.75
2022-09-14T02:48:22.494Z,1.00
2022-09-14T02:49:32.843Z,1.00
2022-09-14T02:50:36.329Z,0.50
2022-09-14T02:51:39.527Z,0.00
2022-09-14T02:52:43.450Z,0.00
2022-09-14T02:53:46.700Z,0.00
2022-09-14T02:54:50.190Z,0.00
2022-09-14T02:55:53.667Z,0.00
2022-09-14T02:56:57.262Z,0.00
2022-09-14T02:58:00.851Z,0.00
2022-09-14T02:59:04.444Z,0.00
2022-09-14T03:00:07.624Z,0.00
2022-09-14T03:01:10.863Z,0.50
2022-09-14T03:02:14.186Z,1.00
2022-09-14T03:03:17.580Z,0.00
2022-09-14T03:04:21.181Z,0.00
2022-09-14T03:05:24.463Z,0.00
2022-09-14T03:06:27.839Z,0.00
2022-09-14T03:07:37.931Z,0.00
2022-09-14T03:08:41.284Z,0.00
2022-09-14T03:09:44.868Z,0.00
2022-09-14T03:10:48.362Z,0.00
2022-09-14T03:11:52.177Z,0.00
2022-09-14T03:12:55.849Z,0.00
2022-09-14T03:13:59.348Z,0.00
2022-09-14T03:15:02.721Z,0.00
2022-09-14T03:16:06.447Z,0.00
2022-09-14T03:17:09.905Z,0.00
2022-09-14T03:18:14.637Z,0.00
2022-09-14T03:19:17.801Z,0.00
2022-09-14T03:20:21.308Z,0.50
2022-09-14T03:21:24.682Z,0.00
2022-09-14T03:22:28.173Z,0.00
2022-09-14T03:23:31.349Z,0.00
2022-09-14T03:24:34.851Z,0.00
2022-09-14T03:25:43.573Z,0.00
2022-09-14T03:26:52.580Z,0.00
2022-09-14T03:27:57.181Z,0.00
2022-09-14T03:29:00.674Z,1.00
2022-09-14T03:30:04.899Z,0.50
2022-09-14T03:31:08.328Z,0.00
2022-09-14T03:32:11.863Z,0.00
2022-09-14T03:33:15.661Z,0.00
2022-09-14T03:34:19.150Z,0.00
2022-09-14T03:35:22.631Z,0.00
2022-09-14T03:36:26.834Z,0.00
2022-09-14T03:37:31.313Z,0.00
2022-09-14T03:38:34.849Z,0.00
2022-09-14T03:39:38.122Z,0.00
2022-09-14T03:40:41.473Z,0.00
2022-09-14T03:41:44.750Z,0.00
2022-09-14T03:42:48.587Z,0.00
2022-09-14T03:43:52.896Z,0.00
2022-09-14T03:44:56.389Z,0.00
2022-09-14T03:45:59.900Z,0.00
2022-09-14T03:47:03.843Z,0.00
2022-09-14T03:48:07.885Z,0.00
2022-09-14T03:49:11.674Z,0.00
2022-09-14T03:50:15.488Z,0.00
2022-09-14T03:51:19.272Z,0.00
2022-09-14T03:52:22.754Z,0.00
2022-09-14T03:53:26.057Z,0.00
2022-09-14T03:54:29.533Z,0.00
2022-09-14T03:55:32.811Z,0.00
2022-09-14T03:56:36.107Z,0.00
2022-09-14T03:57:39.390Z,0.00
2022-09-14T03:58:42.561Z,0.00
2022-09-14T03:59:46.154Z,0.00
2022-09-14T04:00:49.948Z,0.00
2022-09-14T04:01:53.736Z,0.00
2022-09-14T04:02:57.285Z,0.00
2022-09-14T04:04:00.829Z,0.00
2022-09-14T04:05:04.213Z,0.00
2022-09-14T04:06:07.601Z,0.00
2022-09-14T04:07:10.890Z,0.00
2022-09-14T04:08:14.181Z,0.00
2022-09-14T04:09:17.459Z,0.00
2022-09-14T04:10:21.045Z,0.00
2022-09-14T04:11:24.227Z,0.50
2022-09-14T04:12:29.792Z,0.50
2022-09-14T04:13:33.149Z,0.00
2022-09-14T04:14:36.544Z,0.00
2022-09-14T04:15:39.834Z,0.00
2022-09-14T04:16:43.209Z,0.00
2022-09-14T04:17:46.501Z,0.00
2022-09-14T04:18:50.721Z,0.00
2022-09-14T04:19:54.603Z,0.00
2022-09-14T04:20:58.498Z,0.00
2022-09-14T04:22:01.882Z,0.00
2022-09-14T04:23:05.069Z,0.00
2022-09-14T04:24:15.183Z,0.00
2022-09-14T04:25:12.760Z,0.00
2022-09-14T04:26:16.050Z,0.00
2022-09-14T04:27:19.045Z,0.00
2022-09-14T04:28:22.124Z,0.00
2022-09-14T04:29:25.175Z,0.00
2022-09-14T04:30:28.871Z,0.00
2022-09-14T04:31:32.196Z,0.00
2022-09-14T04:32:35.857Z,0.00
2022-09-14T04:33:39.560Z,0.00
2022-09-14T04:34:43.045Z,0.00
2022-09-14T04:35:46.523Z,0.00
2022-09-14T04:36:50.111Z,0.00
2022-09-14T04:37:53.603Z,0.00
2022-09-14T04:38:57.510Z,0.00
2022-09-14T04:40:01.363Z,0.00
2022-09-14T04:41:05.133Z,0.00
2022-09-14T04:42:09.205Z,0.00
2022-09-14T04:43:12.890Z,0.00
2022-09-14T04:44:16.689Z,0.00
2022-09-14T04:45:20.280Z,0.00
2022-09-14T04:46:24.475Z,0.00
2022-09-14T04:47:27.665Z,0.00
2022-09-14T04:48:31.164Z,0.00
2022-09-14T04:49:34.957Z,0.00
2022-09-14T04:50:38.861Z,0.00
2022-09-14T04:51:42.649Z,0.00
2022-09-14T04:52:46.247Z,0.00
2022-09-14T04:53:49.942Z,0.00
2022-09-14T04:54:53.648Z,0.00
2022-09-14T04:55:58.909Z,0.00
2022-09-14T04:57:02.573Z,0.00
2022-09-14T04:58:06.558Z,0.00
2022-09-14T04:59:10.345Z,0.00
2022-09-14T05:00:13.972Z,0.00
2022-09-14T05:01:17.602Z,0.00
2022-09-14T05:02:21.020Z,0.00
2022-09-14T05:03:30.855Z,0.00
2022-09-14T05:04:34.560Z,0.00
2022-09-14T05:05:44.214Z,0.00
2022-09-14T05:06:44.189Z,0.00
2022-09-14T05:07:49.527Z,0.00
2022-09-14T05:08:53.123Z,0.50
2022-09-14T05:09:56.810Z,0.00
2022-09-14T05:11:15.793Z,0.00
2022-09-14T05:12:27.089Z,0.00
2022-09-14T05:13:31.948Z,0.00
2022-09-14T05:14:37.026Z,0.00
2022-09-14T05:15:45.740Z,0.00
2022-09-14T05:16:50.521Z,0.00
2022-09-14T05:17:54.919Z,0.00
2022-09-14T05:18:58.409Z,0.00
2022-09-14T05:20:04.771Z,0.00
2022-09-14T05:21:11.122Z,0.00
2022-09-14T05:22:14.929Z,0.00
2022-09-14T05:23:18.921Z,0.00
2022-09-14T05:24:22.825Z,0.00
2022-09-14T05:25:30.882Z,0.00
2022-09-14T05:26:39.230Z,0.00
2022-09-14T05:27:51.095Z,0.00
2022-09-14T05:28:55.211Z,0.00
2022-09-14T05:29:58.900Z,0.00
2022-09-14T05:31:03.462Z,0.00
2022-09-14T05:32:08.652Z,0.00
2022-09-14T05:33:16.330Z,0.00
2022-09-14T05:34:19.621Z,0.00
2022-09-14T05:35:30.115Z,0.00
2022-09-14T05:36:47.590Z,0.00
2022-09-14T05:37:50.971Z,0.00
2022-09-14T05:40:17.908Z,0.00
2022-09-14T05:41:29.630Z,0.00
2022-09-14T05:42:39.850Z,0.00
2022-09-14T05:43:43.341Z,0.00
2022-09-14T05:44:48.239Z,0.00
2022-09-14T05:45:51.555Z,0.00
2022-09-14T05:47:02.908Z,0.00
2022-09-14T05:48:14.284Z,0.00
2022-09-14T05:49:18.603Z,0.00
2022-09-14T05:50:24.008Z,0.00
2022-09-14T05:51:32.023Z,0.00
2022-09-14T05:52:35.315Z,0.00
2022-09-14T05:53:43.324Z,0.00
2022-09-14T05:54:48.145Z,0.00
2022-09-14T05:57:14.794Z,0.00
2022-09-14T05:58:17.910Z,0.00
2022-09-14T05:59:23.664Z,0.00
2022-09-14T06:00:39.695Z,0.00
2022-09-14T06:01:58.623Z,0.00
2022-09-14T06:03:01.899Z,0.00
2022-09-14T06:04:14.155Z,0.00
2022-09-14T06:05:20.575Z,0.00
2022-09-14T06:06:24.373Z,0.00
2022-09-14T06:07:33.333Z,0.00
2022-09-14T06:08:49.898Z,0.00
2022-09-14T06:11:18.723Z,0.00
2022-09-14T06:12:22.251Z,0.00
2022-09-14T06:13:37.018Z,0.50
2022-09-14T06:14:49.732Z,0.50
2022-09-14T06:15:55.328Z,0.00
2022-09-14T06:17:02.229Z,0.00
2022-09-14T06:18:06.739Z,0.00
2022-09-14T06:24:21.825Z,0.50
2022-09-14T06:25:37.639Z,0.50
2022-09-14T06:28:02.814Z,0.00
2022-09-14T06:29:12.380Z,0.00
2022-09-14T06:30:32.073Z,0.00
2022-09-14T06:33:02.035Z,0.00
2022-09-14T06:34:08.479Z,0.00
2022-09-14T06:36:40.118Z,0.00
2022-09-14T06:37:54.591Z,0.00
2022-09-14T06:38:57.980Z,0.00
2022-09-14T06:41:25.233Z,0.00
2022-09-14T06:42:28.421Z,0.00
2022-09-14T06:43:43.887Z,0.00
2022-09-14T06:45:03.070Z,0.00
2022-09-14T06:47:28.450Z,0.00
2022-09-14T06:48:33.698Z,0.00
2022-09-14T06:49:41.057Z,0.50
2022-09-14T06:50:50.244Z,0.50
2022-09-14T06:51:53.486Z,0.50
2022-09-14T06:53:02.913Z,0.00
2022-09-14T06:54:09.667Z,0.00
2022-09-14T06:55:15.187Z,0.50
2022-09-14T06:56:28.463Z,0.50
2022-09-14T06:57:34.971Z,0.00
2022-09-14T06:58:50.293Z,0.00
2022-09-14T07:00:04.591Z,0.50
2022-09-14T07:01:16.272Z,0.00
2022-09-14T07:02:28.375Z,0.00
2022-09-14T07:03:38.361Z,0.00
2022-09-14T07:04:46.568Z,0.00
2022-09-14T07:05:50.701Z,0.00
2022-09-14T07:08:21.026Z,0.00
2022-09-14T07:10:51.172Z,0.00
2022-09-14T07:11:54.682Z,0.00
2022-09-14T07:13:03.045Z,0.00
2022-09-14T07:16:56.724Z,0.50
2022-09-14T07:18:14.260Z,0.00
2022-09-14T07:19:26.122Z,0.00
2022-09-14T07:20:33.270Z,0.50
2022-09-14T07:21:36.585Z,0.75
2022-09-14T07:22:46.476Z,0.50
2022-09-14T07:23:56.889Z,0.00
2022-09-14T07:25:06.328Z,0.75
2022-09-14T07:26:16.344Z,0.50
2022-09-14T07:27:22.799Z,0.50
2022-09-14T07:28:32.972Z,0.00
2022-09-14T07:29:48.541Z,0.50
2022-09-14T07:32:19.570Z,1.00
2022-09-14T07:33:33.097Z,0.50
2022-09-14T07:34:45.132Z,0.00
2022-09-14T07:35:59.611Z,0.00
2022-09-14T07:38:51.171Z,1.00
2022-09-14T07:41:03.698Z,0.50
2022-09-14T07:43:30.890Z,0.00
2022-09-14T07:44:34.266Z,0.00
2022-09-14T07:45:40.781Z,0.50
2022-09-14T07:46:53.207Z,0.00
2022-09-14T07:48:09.316Z,0.00
2022-09-14T07:49:12.417Z,0.50
2022-09-14T07:50:15.801Z,0.00
2022-09-14T07:51:21.783Z,0.50
2022-09-14T07:52:30.467Z,0.50
2022-09-14T07:53:46.347Z,1.00
2022-09-14T07:55:02.122Z,1.00
2022-09-14T07:56:07.241Z,1.00
2022-09-14T07:57:39.430Z,0.50
2022-09-14T07:58:28.359Z,0.50
2022-09-14T07:59:38.476Z,0.50
2022-09-14T08:00:38.791Z,0.00
2022-09-14T08:01:52.035Z,0.00
2022-09-14T08:05:44.100Z,0.50
2022-09-14T08:08:19.745Z,0.75
2022-09-14T08:09:39.610Z,1.00
2022-09-14T08:10:46.370Z,1.00
2022-09-14T08:11:53.756Z,1.00
2022-09-14T08:12:58.366Z,0.50
2022-09-14T08:14:14.498Z,1.00
2022-09-14T08:16:38.684Z,1.00
2022-09-14T08:17:56.556Z,1.00
2022-09-14T08:20:21.974Z,1.00
2022-09-14T08:24:14.983Z,1.50
2022-09-14T08:25:19.444Z,1.00
2022-09-14T08:26:23.674Z,1.00
2022-09-14T08:28:50.122Z,2.75
2022-09-14T08:30:06.430Z,5.50
2022-09-14T08:31:13.222Z,2.50
2022-09-14T08:32:20.452Z,2.75
2022-09-14T08:33:25.133Z,2.50
2022-09-14T08:34:44.491Z,1.50
2022-09-14T08:35:57.829Z,1.50
2022-09-14T08:36:55.290Z,1.00
2022-09-14T08:37:58.549Z,1.00
2022-09-14T08:39:02.238Z,0.50
2022-09-14T08:40:08.298Z,0.00
2022-09-14T08:41:14.853Z,0.50
2022-09-14T08:42:20.052Z,1.50
2022-09-14T08:43:25.118Z,1.50
2022-09-14T08:44:39.550Z,0.50
2022-09-14T08:45:44.217Z,0.50
2022-09-14T08:46:56.027Z,0.00
2022-09-14T08:48:15.104Z,0.00
2022-09-14T08:49:18.605Z,1.00
2022-09-14T08:50:23.950Z,0.00
2022-09-14T08:51:32.568Z,0.00
2022-09-14T08:52:35.818Z,1.00
2022-09-14T08:53:39.325Z,0.00
2022-09-14T08:54:50.045Z,0.00
2022-09-14T08:55:55.169Z,0.00
2022-09-14T08:56:57.984Z,0.25
2022-09-14T08:58:03.419Z,0.50
2022-09-14T08:59:06.897Z,0.00
2022-09-14T09:00:17.035Z,0.25
2022-09-14T09:01:21.710Z,0.00
2022-09-14T09:02:27.189Z,0.00
2022-09-14T09:03:31.024Z,1.00
2022-09-14T09:04:37.924Z,1.00
2022-09-14T09:05:41.060Z,0.50
2022-09-14T09:06:48.448Z,0.50
2022-09-14T09:07:52.418Z,0.25
2022-09-14T09:08:56.013Z,1.25
2022-09-14T09:10:01.352Z,1.50
2022-09-14T09:11:06.167Z,0.75
2022-09-14T09:12:10.281Z,0.50
2022-09-14T09:13:16.452Z,0.00
2022-09-14T09:14:20.433Z,0.00
2022-09-14T09:15:24.211Z,0.00
2022-09-14T09:16:31.687Z,1.00
2022-09-14T09:17:35.390Z,0.50
2022-09-14T09:18:40.692Z,0.50
2022-09-14T09:19:43.911Z,1.00
2022-09-14T09:20:47.189Z,0.50
2022-09-14T09:21:50.529Z,0.00
2022-09-14T09:22:54.267Z,0.50
2022-09-14T09:23:57.958Z,0.00
2022-09-14T09:25:01.251Z,0.00
2022-09-14T09:26:08.130Z,0.00
2022-09-14T09:27:11.704Z,0.00
2022-09-14T09:28:15.399Z,0.00
2022-09-14T09:29:18.909Z,0.00
2022-09-14T09:30:23.604Z,0.25
2022-09-14T09:31:27.323Z,0.50
2022-09-14T09:32:30.589Z,0.00
2022-09-14T09:33:34.189Z,0.00
2022-09-14T09:34:38.094Z,0.00
2022-09-14T09:35:43.409Z,0.50
2022-09-14T09:36:46.897Z,1.00
2022-09-14T09:37:50.485Z,0.25
2022-09-14T09:38:54.297Z,0.50
2022-09-14T09:39:58.353Z,1.00
2022-09-14T09:41:01.844Z,1.00
2022-09-14T09:42:04.688Z,0.25
2022-09-14T09:43:07.651Z,0.00
2022-09-14T09:44:10.502Z,0.00
2022-09-14T09:45:13.498Z,0.50
2022-09-14T09:46:16.220Z,0.40
2022-09-14T09:47:19.023Z,0.00
2022-09-14T09:48:21.632Z,0.00
2022-09-14T09:49:24.465Z,0.00
2022-09-14T09:50:27.195Z,0.50
2022-09-14T09:51:29.880Z,0.40
2022-09-14T09:52:33.138Z,0.00
2022-09-14T09:53:35.818Z,0.00
2022-09-14T09:54:38.921Z,0.00
2022-09-14T09:55:41.519Z,0.00
2022-09-14T09:56:44.140Z,0.50
2022-09-14T09:57:46.852Z,0.50
2022-09-14T09:58:49.506Z,0.00
2022-09-14T09:59:52.342Z,0.00
2022-09-14T10:00:55.390Z,0.00
2022-09-14T10:01:58.421Z,0.00
2022-09-14T10:03:01.328Z,0.00
2022-09-14T10:04:04.184Z,0.00
2022-09-14T10:05:07.399Z,0.00
2022-09-14T10:06:10.442Z,0.00
2022-09-14T10:07:13.310Z,0.50
2022-09-14T10:08:16.181Z,0.25
2022-09-14T10:09:18.824Z,0.00
2022-09-14T10:10:21.553Z,0.00
2022-09-14T10:11:24.345Z,0.50
2022-09-14T10:12:26.942Z,0.75
2022-09-14T10:13:29.576Z,0.00
2022-09-14T10:14:32.297Z,0.25
2022-09-14T10:15:34.873Z,0.00
2022-09-14T10:16:37.542Z,0.50
2022-09-14T10:17:40.198Z,1.00
2022-09-14T10:18:45.631Z,0.50
2022-09-14T10:19:46.879Z,0.00
2022-09-14T10:20:49.713Z,0.00
2022-09-14T10:21:52.243Z,0.00
2022-09-14T10:22:54.850Z,0.50
2022-09-14T10:23:57.475Z,0.00
2022-09-14T10:25:00.235Z,0.50
2022-09-14T10:26:02.918Z,0.50
2022-09-14T10:27:05.627Z,0.00
2022-09-14T10:28:08.272Z,0.00
2022-09-14T10:29:11.052Z,0.00
2022-09-14T10:30:13.788Z,0.00
2022-09-14T10:31:16.517Z,0.00
2022-09-14T10:32:19.288Z,0.00
2022-09-14T10:33:22.103Z,0.50
2022-09-14T10:34:24.853Z,0.00
2022-09-14T10:35:27.539Z,0.00
2022-09-14T10:36:30.487Z,0.50
2022-09-14T10:37:33.424Z,0.50
2022-09-14T10:38:36.127Z,0.50
2022-09-14T10:39:38.784Z,0.25
2022-09-14T10:40:41.372Z,0.00
2022-09-14T10:41:43.993Z,0.00
2022-09-14T10:42:46.576Z,0.00
2022-09-14T10:43:49.284Z,0.00
2022-09-14T10:44:51.941Z,0.00
2022-09-14T10:45:54.705Z,0.00
2022-09-14T10:47:00.244Z,0.00
2022-09-14T10:48:01.354Z,0.00
2022-09-14T10:49:04.115Z,0.00
2022-09-14T10:50:06.786Z,0.00
2022-09-14T10:51:09.342Z,0.00
2022-09-14T10:52:11.975Z,0.00
2022-09-14T10:53:14.585Z,0.50
2022-09-14T10:54:17.490Z,0.50
2022-09-14T10:55:20.138Z,0.25
2022-09-14T10:56:22.852Z,0.50
2022-09-14T10:57:25.563Z,0.50
2022-09-14T10:58:28.376Z,0.50
2022-09-14T10:59:30.901Z,0.50
2022-09-14T11:00:33.493Z,1.00
2022-09-14T11:01:37.446Z,1.00
2022-09-14T11:02:41.068Z,0.50
2022-09-14T11:03:45.958Z,0.00
2022-09-14T11:04:48.250Z,0.00
2022-09-14T11:05:50.818Z,0.00
2022-09-14T11:06:53.946Z,0.00
2022-09-14T11:07:56.845Z,0.00
2022-09-14T11:09:05.417Z,0.50
2022-09-14T11:10:08.010Z,0.50
2022-09-14T11:11:11.531Z,0.50
2022-09-14T11:12:14.626Z,0.00
2022-09-14T11:13:17.229Z,1.00
2022-09-14T11:14:19.852Z,1.00
2022-09-14T11:15:22.966Z,0.00
2022-09-14T11:16:25.747Z,1.00
2022-09-14T11:17:28.510Z,1.00
2022-09-14T11:18:31.246Z,0.00
2022-09-14T11:19:34.051Z,0.00
2022-09-14T11:20:40.583Z,0.00
2022-09-14T11:21:40.644Z,0.00
2022-09-14T11:22:43.352Z,0.00
2022-09-14T11:23:46.002Z,0.00
2022-09-14T11:24:48.644Z,0.00
2022-09-14T11:25:51.332Z,0.00
2022-09-14T11:26:54.106Z,0.00
2022-09-14T11:27:57.223Z,0.00
2022-09-14T11:29:05.239Z,0.00
2022-09-14T11:30:07.820Z,0.00
2022-09-14T11:31:10.437Z,0.00
2022-09-14T11:32:21.715Z,0.00
2022-09-14T11:33:16.991Z,0.00
2022-09-14T11:34:19.532Z,0.25
2022-09-14T11:35:22.463Z,0.00
2022-09-14T11:36:25.600Z,0.25
2022-09-14T11:37:28.446Z,0.60
2022-09-14T11:38:31.389Z,0.50
2022-09-14T11:39:34.103Z,0.00
2022-09-14T11:40:37.001Z,0.00
2022-09-14T11:41:39.649Z,0.00
2022-09-14T11:42:42.717Z,0.00
2022-09-14T11:43:45.575Z,0.25
2022-09-14T11:44:48.329Z,0.00
2022-09-14T11:45:51.079Z,0.00
2022-09-14T11:46:55.700Z,0.00
2022-09-14T11:47:58.214Z,0.00
2022-09-14T11:49:01.076Z,0.00
2022-09-14T11:50:03.968Z,0.00
2022-09-14T11:51:06.863Z,0.00
2022-09-14T11:52:09.652Z,0.00
2022-09-14T11:53:12.556Z,0.00
2022-09-14T11:54:15.572Z,0.00
2022-09-14T11:55:19.406Z,0.50
2022-09-14T11:56:22.126Z,0.50
2022-09-14T11:57:25.151Z,0.00
2022-09-14T11:58:27.780Z,0.50
2022-09-14T11:59:30.372Z,0.75
2022-09-14T12:00:33.012Z,0.50
2022-09-14T12:01:35.658Z,0.00
2022-09-14T12:02:38.699Z,0.50
2022-09-14T12:03:41.441Z,0.50
2022-09-14T12:04:44.122Z,0.00
2022-09-14T12:05:46.692Z,0.00
2022-09-14T12:06:49.417Z,0.50
2022-09-14T12:07:52.291Z,1.00
2022-09-14T12:08:55.218Z,0.50
2022-09-14T12:09:58.243Z,0.50
2022-09-14T12:11:01.078Z,0.50
2022-09-14T12:12:03.890Z,0.00
2022-09-14T12:13:06.709Z,1.00
2022-09-14T12:14:09.599Z,0.00
2022-09-14T12:15:12.557Z,0.00
2022-09-14T12:16:15.649Z,0.00
2022-09-14T12:17:38.407Z,1.00
2022-09-14T12:18:22.868Z,0.50
2022-09-14T12:19:26.087Z,0.50
2022-09-14T12:20:28.721Z,0.50
2022-09-14T12:21:31.270Z,0.50
2022-09-14T12:22:34.094Z,0.50
2022-09-14T12:23:36.831Z,0.00
2022-09-14T12:24:40.912Z,0.00
2022-09-14T12:25:43.533Z,0.50
2022-09-14T12:26:46.171Z,1.25
2022-09-14T12:27:48.949Z,0.50
2022-09-14T12:28:51.593Z,0.00
2022-09-14T12:29:54.213Z,0.00
2022-09-14T12:30:56.823Z,0.00
2022-09-14T12:31:59.453Z,0.00
2022-09-14T12:33:02.218Z,0.00
2022-09-14T12:34:05.246Z,0.00
2022-09-14T12:35:08.114Z,0.00
2022-09-14T12:36:11.150Z,0.00
2022-09-14T12:37:14.081Z,0.00
2022-09-14T12:38:17.022Z,0.00
2022-09-14T12:39:19.901Z,0.50
2022-09-14T12:40:22.902Z,0.40
2022-09-14T12:41:25.870Z,0.00
2022-09-14T12:42:28.653Z,0.50
2022-09-14T12:43:31.294Z,0.50
2022-09-14T12:44:34.154Z,0.50
2022-09-14T12:45:36.761Z,0.00
2022-09-14T12:46:39.766Z,0.00
2022-09-14T12:47:42.548Z,0.50
2022-09-14T12:48:45.249Z,1.00
2022-09-14T12:49:47.910Z,1.00
2022-09-14T12:50:50.539Z,0.50
2022-09-14T12:51:53.301Z,0.00
2022-09-14T12:52:55.954Z,0.00
2022-09-14T12:53:59.069Z,0.00
2022-09-14T12:55:01.771Z,0.00
2022-09-14T12:56:04.547Z,0.25
2022-09-14T12:57:07.589Z,0.50
2022-09-14T12:58:11.132Z,0.00
2022-09-14T12:59:13.991Z,0.50
2022-09-14T13:00:17.299Z,0.00
2022-09-14T13:01:20.244Z,0.50
2022-09-14T13:02:23.383Z,0.25
2022-09-14T13:03:26.489Z,0.00
2022-09-14T13:04:29.434Z,0.00
2022-09-14T13:05:32.080Z,0.50
2022-09-14T13:06:34.830Z,1.00
2022-09-14T13:07:37.349Z,0.50
2022-09-14T13:08:40.009Z,0.00
2022-09-14T13:09:42.668Z,0.00
2022-09-14T13:10:45.363Z,0.00
2022-09-14T13:11:47.958Z,0.50
2022-09-14T13:12:50.758Z,0.50
2022-09-14T13:13:53.604Z,0.50
2022-09-14T13:14:56.683Z,0.00
2022-09-14T13:15:59.682Z,0.00
2022-09-14T13:17:02.511Z,0.50
2022-09-14T13:18:05.319Z,1.00
2022-09-14T13:19:12.490Z,0.00
2022-09-14T13:20:12.299Z,0.50
2022-09-14T13:21:15.133Z,0.50
2022-09-14T13:22:18.135Z,0.50
2022-09-14T13:23:21.987Z,0.50
2022-09-14T13:24:25.107Z,0.00
2022-09-14T13:25:27.873Z,0.50
2022-09-14T13:26:30.550Z,0.50
2022-09-14T13:27:33.166Z,0.00
2022-09-14T13:28:35.864Z,1.00
2022-09-14T13:29:38.404Z,0.50
2022-09-14T13:30:41.273Z,0.00
2022-09-14T13:31:43.968Z,0.00
2022-09-14T13:32:46.691Z,0.50
2022-09-14T13:33:49.454Z,1.00
2022-09-14T13:34:52.133Z,0.40
2022-09-14T13:35:54.989Z,0.00
2022-09-14T13:36:57.944Z,0.50
2022-09-14T13:38:00.601Z,0.50
2022-09-14T13:39:03.382Z,0.50
2022-09-14T13:40:06.134Z,1.00
2022-09-14T13:41:09.007Z,1.00
2022-09-14T13:42:11.678Z,1.00
2022-09-14T13:43:14.359Z,1.00
2022-09-14T13:44:17.094Z,1.00
2022-09-14T13:45:19.778Z,0.80
2022-09-14T13:46:22.489Z,0.00
2022-09-14T13:47:25.209Z,0.00
2022-09-14T13:48:27.887Z,0.60
2022-09-14T13:49:30.506Z,0.50
2022-09-14T13:50:33.012Z,0.50
2022-09-14T13:51:35.530Z,0.50
2022-09-14T13:53:00.466Z,0.50
2022-09-14T13:53:42.203Z,1.00
2022-09-14T13:54:44.875Z,0.50
2022-09-14T13:55:47.431Z,1.00
2022-09-14T13:56:50.220Z,1.75
2022-09-14T13:57:52.777Z,0.50
2022-09-14T13:58:55.522Z,0.50
2022-09-14T13:59:58.503Z,0.50
2022-09-14T14:01:01.353Z,0.50
2022-09-14T14:02:04.372Z,1.00
2022-09-14T14:03:11.769Z,1.00
2022-09-14T14:04:17.271Z,0.50
2022-09-14T14:05:18.293Z,0.50
2022-09-14T14:06:21.140Z,1.00
2022-09-14T14:07:23.952Z,0.50
2022-09-14T14:08:26.863Z,1.25
2022-09-14T14:09:29.796Z,1.00
2022-09-14T14:10:32.675Z,0.50
2022-09-14T14:11:35.249Z,0.00
2022-09-14T14:12:38.176Z,0.00
2022-09-14T14:13:40.895Z,0.50
2022-09-14T14:14:43.826Z,0.00
2022-09-14T14:15:46.498Z,0.50
2022-09-14T14:16:49.179Z,1.00
2022-09-14T14:17:51.906Z,1.00
2022-09-14T14:18:54.785Z,1.00
2022-09-14T14:19:57.466Z,0.00
2022-09-14T14:21:00.662Z,0.50
2022-09-14T14:22:03.672Z,1.20
2022-09-14T14:23:06.539Z,1.50
2022-09-14T14:24:13.350Z,1.00
2022-09-14T14:25:14.137Z,1.00
2022-09-14T14:26:17.328Z,1.00
2022-09-14T14:27:20.236Z,1.00
2022-09-14T14:28:24.078Z,1.00
2022-09-14T14:29:27.958Z,1.00
2022-09-14T14:30:30.539Z,1.00
2022-09-14T14:31:33.574Z,1.50
2022-09-14T14:32:36.224Z,1.00
2022-09-14T14:33:38.775Z,0.50
2022-09-14T14:34:41.277Z,0.50
2022-09-14T14:35:43.815Z,1.00
2022-09-14T14:36:46.745Z,1.50
2022-09-14T14:37:49.349Z,1.00
2022-09-14T14:38:51.975Z,0.00
2022-09-14T14:39:54.671Z,1.50
2022-09-14T14:40:57.429Z,1.25
2022-09-14T14:42:08.287Z,1.00
2022-09-14T14:43:11.680Z,2.50
2022-09-14T14:44:14.746Z,0.00
2022-09-14T14:45:17.838Z,0.00
2022-09-14T14:46:20.936Z,0.00
2022-09-14T14:47:24.191Z,0.00
2022-09-14T14:48:27.270Z,0.50
2022-09-14T14:49:30.467Z,1.00
2022-09-14T14:50:33.532Z,1.00
2022-09-14T14:51:36.816Z,0.50
2022-09-14T14:52:40.003Z,0.50
2022-09-14T14:53:43.185Z,1.00
2022-09-14T14:54:46.265Z,1.50
2022-09-14T14:55:49.446Z,0.75
2022-09-14T14:56:52.827Z,0.00